Time;durP1;ratioP1;P1;durP2;ratioP2;P2;SDS_P1;SDS_P2;PMS_P1;PMS_P2;Temp;Humidity;BMP_temperature;BMP_pressure;BME280_temperature;BME280_humidity;BME280_pressure;Samples;Min_cycle;Max_cycle;Signal;HPM_P1;HPM_P2
2023/05/09 00:01:54;;;;;;;58.55;26.42;;;;;;;-143.48;100.00;118439.88;5052741;28;20021;-71
2023/05/09 00:04:19;;;;;;;56.70;26.20;;;;;;;-143.48;100.00;118439.88;5034928;28;20025;-71
2023/05/09 00:06:45;;;;;;;57.88;27.08;;;;;;;-143.48;100.00;118439.88;5034901;28;20029;-71
2023/05/09 00:09:11;;;;;;;57.03;26.58;;;;;;;-143.48;100.00;118439.88;5052779;28;20444;-71
2023/05/09 00:11:37;;;;;;;59.63;27.05;;;;;;;-143.48;100.00;118439.88;5034856;28;20116;-71
2023/05/09 00:14:02;;;;;;;58.25;27.65;;;;;;;-143.48;100.00;118439.88;5052743;28;20074;-72
2023/05/09 00:16:28;;;;;;;59.20;27.33;;;;;;;-143.48;100.00;118439.88;5052722;28;20028;-71
2023/05/09 00:18:54;;;;;;;57.38;26.88;;;;;;;-143.48;100.00;118439.88;5052605;28;20017;-71
2023/05/09 00:21:20;;;;;;;56.35;26.55;;;;;;;-143.48;100.00;118439.88;5052648;28;20025;-71
2023/05/09 00:23:46;;;;;;;57.35;27.45;;;;;;;-143.48;100.00;118439.88;5052654;28;20496;-71
2023/05/09 00:26:11;;;;;;;56.80;26.25;;;;;;;-143.48;100.00;118439.88;5052619;28;20473;-71
2023/05/09 00:28:37;;;;;;;64.50;27.85;;;;;;;-143.48;100.00;118439.88;5052538;28;20024;-71
2023/05/09 00:31:03;;;;;;;61.35;27.70;;;;;;;-143.48;100.00;118439.88;5052604;28;20029;-71
2023/05/09 00:33:28;;;;;;;68.05;27.63;;;;;;;-143.48;100.00;118439.88;5034699;28;20074;-71
2023/05/09 00:35:54;;;;;;;63.75;27.27;;;;;;;-143.48;100.00;118439.88;5052520;28;20029;-71
2023/05/09 00:38:19;;;;;;;62.50;27.05;;;;;;;-143.48;100.00;118439.88;5052515;28;20029;-71
2023/05/09 00:40:45;;;;;;;64.07;27.55;;;;;;;-143.48;100.00;118439.88;5052533;28;20024;-71
2023/05/09 00:43:10;;;;;;;60.95;26.98;;;;;;;-143.48;100.00;118439.88;5034610;28;20025;-71
2023/05/09 00:45:36;;;;;;;71.00;28.20;;;;;;;-143.48;100.00;118439.88;5056157;28;20021;-73
2023/05/09 00:48:01;;;;;;;64.95;28.27;;;;;;;-143.48;100.00;118439.88;5055884;28;20072;-72
2023/05/09 00:50:27;;;;;;;60.75;27.80;;;;;;;-143.48;100.00;118439.88;5056131;28;20044;-72
2023/05/09 00:52:52;;;;;;;62.03;28.23;;;;;;;-143.48;100.00;118439.88;5056033;28;20020;-71
2023/05/09 00:55:18;;;;;;;60.45;27.80;;;;;;;-143.48;100.00;118439.88;5056041;28;20052;-71
2023/05/09 00:57:43;;;;;;;60.78;28.75;;;;;;;-143.48;100.00;118439.88;5055922;28;20040;-71
2023/05/09 01:00:13;;;;;;;66.50;28.15;;;;;;;-143.48;100.00;118439.88;5055907;28;20032;-71
2023/05/09 01:02:43;;;;;;;65.97;27.63;;;;;;;-143.48;100.00;118439.88;5055861;28;20029;-73
2023/05/09 01:05:10;;;;;;;68.43;28.17;;;;;;;-143.48;100.00;118439.88;5055955;28;20051;-72
2023/05/09 01:08:01;;;;;;;66.75;29.27;;;;;;;-143.48;100.00;118439.88;5055706;28;20103;-72
2023/05/09 01:10:43;;;;;;;69.95;29.35;;;;;;;-143.48;100.00;118439.88;5055769;28;20032;-71
2023/05/09 01:13:26;;;;;;;64.38;27.77;;;;;;;-143.48;100.00;118439.88;5037834;28;20025;-71
2023/05/09 01:16:09;;;;;;;68.32;28.00;;;;;;;-143.48;100.00;118439.88;5055724;28;20032;-71
2023/05/09 01:18:42;;;;;;;;;;;;;;;-143.48;100.00;118439.88;5055851;28;20013;-71
2023/05/09 01:21:13;;;;;;;66.55;28.38;;;;;;;-143.48;100.00;118439.88;5037667;28;20011;-72
2023/05/09 01:23:44;;;;;;;68.25;28.30;;;;;;;-143.48;100.00;118439.88;5055583;28;20477;-72
2023/05/09 01:26:09;;;;;;;67.10;28.23;;;;;;;-143.48;100.00;118439.88;5055362;28;20035;-71
2023/05/09 01:28:40;;;;;;;66.45;28.33;;;;;;;-143.48;100.00;118439.88;5055458;28;20029;-73
2023/05/09 01:31:07;;;;;;;67.05;28.30;;;;;;;-143.48;100.00;118439.88;5055314;28;20075;-72
2023/05/09 01:33:37;;;;;;;67.65;27.45;;;;;;;-143.48;100.00;118439.88;5055530;28;20039;-72
2023/05/09 01:36:06;;;;;;;67.30;29.05;;;;;;;-143.48;100.00;118439.88;5055348;28;20035;-72
2023/05/09 01:38:36;;;;;;;72.97;28.48;;;;;;;-143.48;100.00;118439.88;5055062;28;20029;-72
2023/05/09 01:41:04;;;;;;;66.72;28.23;;;;;;;-143.48;100.00;118439.88;5055300;28;20384;-70
2023/05/09 01:43:32;;;;;;;66.60;26.88;;;;;;;-143.48;100.00;118439.88;5055218;28;20472;-72
2023/05/09 01:45:58;;;;;;;65.85;28.30;;;;;;;-143.48;100.00;118439.88;5054853;28;20546;-71
2023/05/09 01:48:26;;;;;;;63.42;28.35;;;;;;;-143.48;100.00;118439.88;5036972;28;20395;-72
2023/05/09 01:50:53;;;;;;;67.75;27.83;;;;;;;-143.48;100.00;118439.88;5054909;28;20023;-72
2023/05/09 01:53:19;;;;;;;70.82;29.23;;;;;;;-143.48;100.00;118439.88;5055136;28;20059;-72
2023/05/09 01:55:47;;;;;;;66.40;28.45;;;;;;;-143.48;100.00;118439.88;5053565;28;20024;-73
2023/05/09 01:58:13;;;;;;;67.25;28.30;;;;;;;-143.48;100.00;118439.88;5054722;28;20551;-72
2023/05/09 02:00:39;;;;;;;65.80;27.95;;;;;;;-143.48;100.00;118439.88;5054715;28;20031;-71
2023/05/09 02:03:05;;;;;;;67.55;28.20;;;;;;;-143.48;100.00;118439.88;5054777;28;20147;-71
2023/05/09 02:05:32;;;;;;;61.70;27.00;;;;;;;-143.48;100.00;118439.88;5036740;28;20067;-72
2023/05/09 02:07:58;;;;;;;69.38;29.10;;;;;;;-143.48;100.00;118439.88;5054720;28;20029;-71
2023/05/09 02:10:26;;;;;;;67.65;29.23;;;;;;;-143.48;100.00;118439.88;5054508;28;20033;-71
2023/05/09 02:12:51;;;;;;;70.25;29.05;;;;;;;-143.48;100.00;118439.88;5054517;28;20028;-72
2023/05/09 02:15:17;;;;;;;64.85;28.50;;;;;;;-143.48;100.00;118439.88;5054424;28;20033;-73
2023/05/09 02:17:42;;;;;;;63.80;28.02;;;;;;;-143.48;100.00;118439.88;5054447;28;20133;-71
2023/05/09 02:20:12;;;;;;;71.53;28.15;;;;;;;-143.48;100.00;118439.88;5036414;28;20087;-71
2023/05/09 02:22:40;;;;;;;66.43;28.52;;;;;;;-143.48;100.00;118439.88;5054424;28;20029;-70
2023/05/09 02:25:06;;;;;;;72.07;29.40;;;;;;;-143.48;100.00;118439.88;5054421;28;20461;-72
2023/05/09 02:27:33;;;;;;;65.72;28.58;;;;;;;-143.48;100.00;118439.88;5054157;28;20501;-72
2023/05/09 02:30:02;;;;;;;64.22;28.98;;;;;;;-143.48;100.00;118439.88;5054181;28;20017;-70
2023/05/09 02:32:30;;;;;;;66.82;28.20;;;;;;;-143.48;100.00;118439.88;5036153;28;20044;-71
2023/05/09 02:34:57;;;;;;;69.72;27.92;;;;;;;-143.48;100.00;118439.88;5036116;28;20127;-72
2023/05/09 02:37:23;;;;;;;66.43;27.95;;;;;;;-143.48;100.00;118439.88;5054051;28;20036;-72
2023/05/09 02:39:49;;;;;;;67.30;28.98;;;;;;;-143.48;100.00;118439.88;5053992;28;20025;-72
2023/05/09 02:42:23;;;;;;;66.82;28.60;;;;;;;-143.48;100.00;118439.88;5053948;28;20354;-72
2023/05/09 02:44:49;;;;;;;66.45;28.05;;;;;;;-143.48;100.00;118439.88;5053847;28;20056;-71
2023/05/09 02:47:14;;;;;;;69.38;29.20;;;;;;;-143.48;100.00;118439.88;5053615;28;20115;-72
2023/05/09 02:49:40;;;;;;;71.60;28.17;;;;;;;-143.48;100.00;118439.88;5053830;28;20039;-72
2023/05/09 02:52:05;;;;;;;65.68;27.88;;;;;;;-143.48;100.00;118439.88;5053768;28;20021;-73
2023/05/09 02:54:30;;;;;;;66.57;28.50;;;;;;;-143.48;100.00;118439.88;5053663;28;20090;-72
2023/05/09 02:56:56;;;;;;;64.13;28.00;;;;;;;-143.48;100.00;118439.88;5053760;28;20029;-71
2023/05/09 02:59:21;;;;;;;64.35;26.92;;;;;;;-143.48;100.00;118439.88;5053621;28;20036;-72
2023/05/09 03:01:46;;;;;;;65.13;28.33;;;;;;;-143.48;100.00;118439.88;5053586;28;20040;-70
2023/05/09 03:04:12;;;;;;;68.13;29.10;;;;;;;-143.48;100.00;118439.88;5053549;28;20040;-72
2023/05/09 03:06:37;;;;;;;63.50;28.08;;;;;;;-143.48;100.00;118439.88;5053104;28;20447;-72
2023/05/09 03:09:03;;;;;;;60.58;26.80;;;;;;;-143.48;100.00;118439.88;5035554;28;20025;-72
2023/05/09 03:11:29;;;;;;;59.45;26.08;;;;;;;-143.48;100.00;118439.88;5053485;28;20044;-72
2023/05/09 03:13:55;;;;;;;67.68;27.10;;;;;;;-143.48;100.00;118439.88;5053328;28;20441;-71
2023/05/09 03:16:20;;;;;;;59.33;26.98;;;;;;;-143.48;100.00;118439.88;5053338;28;20060;-72
2023/05/09 03:18:45;;;;;;;61.78;26.67;;;;;;;-143.48;100.00;118439.88;5035404;28;20526;-72
2023/05/09 03:21:11;;;;;;;57.33;26.02;;;;;;;-143.48;100.00;118439.88;5053416;28;20059;-71
2023/05/09 03:23:37;;;;;;;62.88;26.38;;;;;;;-143.48;100.00;118439.88;5053260;28;20044;-72
2023/05/09 03:26:02;;;;;;;60.85;26.00;;;;;;;-143.48;100.00;118439.88;5053290;28;20024;-72
2023/05/09 03:28:28;;;;;;;63.63;26.65;;;;;;;-143.48;100.00;118439.88;5053049;28;20013;-72
2023/05/09 03:30:53;;;;;;;60.80;25.40;;;;;;;-143.48;100.00;118439.88;5053222;28;20067;-71
2023/05/09 03:33:18;;;;;;;57.25;25.33;;;;;;;-143.48;100.00;118439.88;5053262;28;20024;-71
2023/05/09 03:35:43;;;;;;;58.05;25.80;;;;;;;-143.48;100.00;118439.88;5053174;28;20433;-72
2023/05/09 03:38:09;;;;;;;58.30;25.83;;;;;;;-143.48;100.00;118439.88;5035092;28;20028;-72
2023/05/09 03:40:34;;;;;;;58.53;25.02;;;;;;;-143.48;100.00;118439.88;5053058;28;20028;-71
2023/05/09 03:43:00;;;;;;;58.83;26.02;;;;;;;-143.48;100.00;118439.88;5053039;28;20059;-71
2023/05/09 03:45:25;;;;;;;55.38;25.23;;;;;;;-143.48;100.00;118439.88;5052927;28;20391;-72
2023/05/09 03:47:50;;;;;;;57.45;25.13;;;;;;;-143.48;100.00;118439.88;5052899;28;20542;-72
2023/05/09 03:50:15;;;;;;;58.65;25.33;;;;;;;-143.48;100.00;118439.88;5053177;28;20167;-72
2023/05/09 03:52:41;;;;;;;60.97;25.67;;;;;;;-143.48;100.00;118439.88;5052898;28;20503;-72
2023/05/09 03:55:07;;;;;;;58.72;24.98;;;;;;;-143.48;100.00;118439.88;5053057;28;20033;-72
2023/05/09 03:57:34;;;;;;;59.50;25.20;;;;;;;-143.48;100.00;118439.88;5052914;28;20401;-72
2023/05/09 03:59:59;;;;;;;57.38;24.60;;;;;;;-143.48;100.00;118439.88;5052818;28;20036;-72
2023/05/09 04:02:25;;;;;;;52.15;23.83;;;;;;;-143.48;100.00;118439.88;5052879;28;20020;-72
2023/05/09 04:04:51;;;;;;;56.83;23.92;;;;;;;-143.48;100.00;118439.88;5052799;28;20096;-72
2023/05/09 04:07:17;;;;;;;56.05;24.45;;;;;;;-143.48;100.00;118439.88;5052667;28;20029;-72
2023/05/09 04:09:43;;;;;;;55.60;24.25;;;;;;;-143.48;100.00;118439.88;5052941;28;20021;-71
2023/05/09 04:12:08;;;;;;;56.08;24.00;;;;;;;-143.48;100.00;118439.88;5052678;28;20035;-71
2023/05/09 04:14:33;;;;;;;55.38;24.40;;;;;;;-143.48;100.00;118439.88;5052714;28;20096;-71
2023/05/09 04:16:59;;;;;;;52.40;22.20;;;;;;;-143.48;100.00;118439.88;5034863;28;20028;-72
2023/05/09 04:19:24;;;;;;;51.10;23.50;;;;;;;-143.48;100.00;118439.88;5036798;28;20025;-72
2023/05/09 04:21:49;;;;;;;54.88;23.30;;;;;;;-143.48;100.00;118439.88;5056383;28;20388;-71
2023/05/09 04:24:14;;;;;;;51.17;23.27;;;;;;;-143.48;100.00;118439.88;5056405;28;20052;-72
2023/05/09 04:26:40;;;;;;;52.08;23.20;;;;;;;-143.48;100.00;118439.88;5056397;28;20108;-71
2023/05/09 04:29:05;;;;;;;48.60;21.92;;;;;;;-143.48;100.00;118439.88;5038414;28;20035;-71
2023/05/09 04:31:31;;;;;;;56.63;23.55;;;;;;;-143.48;100.00;118439.88;5056295;28;20487;-72
2023/05/09 04:33:57;;;;;;;49.35;22.33;;;;;;;-143.48;100.00;118439.88;5038472;28;20025;-71
2023/05/09 04:36:23;;;;;;;47.30;21.92;;;;;;;-143.48;100.00;118439.88;5056237;28;20035;-71
2023/05/09 04:38:48;;;;;;;55.08;23.02;;;;;;;-143.48;100.00;118439.88;5056114;28;20028;-71
2023/05/09 04:41:14;;;;;;;52.35;23.05;;;;;;;-143.48;100.00;118439.88;5056070;28;20028;-71
2023/05/09 04:43:39;;;;;;;49.30;21.58;;;;;;;-143.48;100.00;118439.88;5055920;28;20036;-72
2023/05/09 04:46:04;;;;;;;47.08;21.50;;;;;;;-143.48;100.00;118439.88;5055940;28;20024;-71
2023/05/09 04:48:30;;;;;;;49.65;22.05;;;;;;;-143.48;100.00;118439.88;5055747;28;20044;-71
2023/05/09 04:50:55;;;;;;;43.17;21.08;;;;;;;-143.48;100.00;118439.88;5056007;28;20108;-71
2023/05/09 04:53:20;;;;;;;49.45;20.85;;;;;;;-143.48;100.00;118439.88;5055841;28;20050;-71
2023/05/09 04:55:46;;;;;;;43.90;20.48;;;;;;;-143.48;100.00;118439.88;5055945;28;20025;-71
2023/05/09 04:58:11;;;;;;;43.22;20.15;;;;;;;-143.48;100.00;118439.88;5055840;28;20070;-72
2023/05/09 05:00:36;;;;;;;50.60;20.90;;;;;;;-143.48;100.00;118439.88;5055866;28;20115;-71
2023/05/09 05:03:01;;;;;;;41.05;19.85;;;;;;;-143.48;100.00;118439.88;5037480;28;20373;-72
2023/05/09 05:05:27;;;;;;;41.83;20.30;;;;;;;-143.48;100.00;118439.88;5055627;28;20031;-72
2023/05/09 05:07:53;;;;;;;40.33;19.90;;;;;;;-143.48;100.00;118439.88;5055726;28;20028;-72
2023/05/09 05:10:18;;;;;;;38.55;19.52;;;;;;;-143.48;100.00;118439.88;5055581;28;20025;-72
2023/05/09 05:12:44;;;;;;;41.13;18.88;;;;;;;-143.48;100.00;118439.88;5055559;28;20033;-72
2023/05/09 05:15:10;;;;;;;42.38;20.13;;;;;;;-143.48;100.00;118439.88;5054816;28;20100;-71
2023/05/09 05:17:39;;;;;;;38.42;18.73;;;;;;;-143.48;100.00;118439.88;5055822;28;20021;-71
2023/05/09 05:20:09;;;;;;;39.90;19.02;;;;;;;-143.48;100.00;118439.88;5039089;28;20055;-72
2023/05/09 05:22:35;;;;;;;39.88;18.40;;;;;;;-143.48;100.00;118439.88;5058002;28;20534;-73
2023/05/09 05:25:02;;;;;;;37.05;18.58;;;;;;;-143.48;100.00;118439.88;5039527;28;20021;-73
2023/05/09 05:27:28;;;;;;;38.53;18.08;;;;;;;-143.48;100.00;118439.88;5039481;28;20033;-72
2023/05/09 05:29:54;;;;;;;36.00;18.00;;;;;;;-143.48;100.00;118439.88;5038444;28;20025;-72
2023/05/09 05:32:20;;;;;;;32.13;16.48;;;;;;;-143.48;100.00;118439.88;5039655;28;20083;-71
2023/05/09 05:34:45;;;;;;;32.58;16.80;;;;;;;-143.48;100.00;118439.88;5055576;28;20404;-72
2023/05/09 05:37:10;;;;;;;35.28;17.58;;;;;;;-143.48;100.00;118439.88;5054911;28;20033;-72
2023/05/09 05:39:36;;;;;;;32.78;17.20;;;;;;;-143.48;100.00;118439.88;5036822;28;20033;-71
2023/05/09 05:42:01;;;;;;;35.42;17.02;;;;;;;-143.48;100.00;118439.88;5055000;28;20039;-72
2023/05/09 05:44:26;;;;;;;29.85;16.33;;;;;;;-143.48;100.00;118439.88;5054738;28;20033;-73
2023/05/09 05:46:51;;;;;;;34.30;15.80;;;;;;;-143.48;100.00;118439.88;5054847;28;20390;-71
2023/05/09 05:49:17;;;;;;;33.22;16.17;;;;;;;-143.48;100.00;118439.88;5036789;28;20112;-73
2023/05/09 05:51:43;;;;;;;29.48;15.88;;;;;;;-143.48;100.00;118439.88;5056801;28;20385;-71
2023/05/09 05:54:08;;;;;;;33.97;16.48;;;;;;;-143.48;100.00;118439.88;5039376;28;20028;-72
2023/05/09 05:56:33;;;;;;;28.73;15.38;;;;;;;-143.48;100.00;118439.88;5055125;28;20040;-72
2023/05/09 05:58:59;;;;;;;31.67;15.60;;;;;;;-143.48;100.00;118439.88;5055098;28;20044;-71
2023/05/09 06:01:24;;;;;;;29.08;15.32;;;;;;;-143.48;100.00;118439.88;5055252;28;20028;-72
2023/05/09 06:03:53;;;;;;;28.02;15.13;;;;;;;-143.48;100.00;118439.88;5055523;28;20025;-72
2023/05/09 06:06:20;;;;;;;32.03;15.35;;;;;;;-143.48;100.00;118439.88;5055528;28;20144;-71
2023/05/09 06:08:46;;;;;;;35.15;15.40;;;;;;;-143.48;100.00;118439.88;5037405;28;20032;-70
2023/05/09 06:11:11;;;;;;;31.83;15.45;;;;;;;-143.48;100.00;118439.88;5059439;28;20112;-71
2023/05/09 06:13:37;;;;;;;26.60;14.25;;;;;;;-143.48;100.00;118439.88;5060355;28;20399;-71
2023/05/09 06:16:02;;;;;;;32.22;14.90;;;;;;;-143.48;100.00;118439.88;5061480;28;20396;-72
2023/05/09 06:18:28;;;;;;;24.42;14.45;;;;;;;-143.48;100.00;118439.88;5060803;28;20025;-72
2023/05/09 06:20:53;;;;;;;31.15;14.55;;;;;;;-143.48;100.00;118439.88;5043360;28;20047;-72
2023/05/09 06:23:21;;;;;;;32.03;14.45;;;;;;;-143.48;100.00;118439.88;5043869;28;20036;-73
2023/05/09 06:25:46;;;;;;;30.00;14.98;;;;;;;-143.48;100.00;118439.88;5056548;28;20032;-71
2023/05/09 06:28:12;;;;;;;29.85;15.35;;;;;;;-143.48;100.00;118439.88;5053116;28;20460;-73
2023/05/09 06:30:37;;;;;;;30.05;15.48;;;;;;;-143.48;100.00;118439.88;5051695;28;20021;-70
2023/05/09 06:33:03;;;;;;;26.88;14.25;;;;;;;-143.48;100.00;118439.88;5051657;28;20048;-71
2023/05/09 06:35:30;;;;;;;31.13;14.50;;;;;;;-143.48;100.00;118439.88;5036448;28;20024;-71
2023/05/09 06:37:55;;;;;;;28.50;14.88;;;;;;;-143.48;100.00;118439.88;5053338;28;20028;-71
2023/05/09 06:40:24;;;;;;;26.63;14.45;;;;;;;-143.48;100.00;118439.88;5036255;28;20017;-72
2023/05/09 06:42:49;;;;;;;35.33;15.65;;;;;;;-143.48;100.00;118439.88;5052455;28;20419;-72
2023/05/09 06:45:15;;;;;;;27.23;14.48;;;;;;;-143.48;100.00;118439.88;5054350;28;20067;-72
2023/05/09 06:47:41;;;;;;;29.83;14.05;;;;;;;-143.48;100.00;118439.88;5033757;28;20048;-71
2023/05/09 06:50:08;;;;;;;29.30;14.98;;;;;;;-143.48;100.00;118439.88;5034010;28;20420;-71
2023/05/09 06:52:37;;;;;;;25.15;14.30;;;;;;;-143.48;100.00;118439.88;5033269;28;20032;-71
2023/05/09 06:55:03;;;;;;;28.83;15.25;;;;;;;-143.48;100.00;118439.88;5035342;28;20029;-72
2023/05/09 06:57:28;;;;;;;28.33;14.93;;;;;;;-143.48;100.00;118439.88;5034254;28;20388;-72
2023/05/09 06:59:54;;;;;;;28.98;15.63;;;;;;;-143.48;100.00;118439.88;5032392;28;20021;-72
2023/05/09 07:02:19;;;;;;;26.95;14.52;;;;;;;-143.48;100.00;118439.88;5033829;28;20029;-72
2023/05/09 07:04:44;;;;;;;31.02;16.08;;;;;;;-143.48;100.00;118439.88;5034278;28;20029;-70
2023/05/09 07:07:10;;;;;;;29.80;15.20;;;;;;;-143.48;100.00;118439.88;5033496;28;20108;-70
2023/05/09 07:09:35;;;;;;;34.22;16.20;;;;;;;-143.48;100.00;118439.88;5033665;28;20437;-70
2023/05/09 07:12:00;;;;;;;28.45;14.93;;;;;;;-143.48;100.00;118439.88;5033492;28;20429;-71
2023/05/09 07:14:26;;;;;;;31.20;15.63;;;;;;;-143.48;100.00;118439.88;5033191;28;20055;-70
2023/05/09 07:16:51;;;;;;;31.70;15.65;;;;;;;-143.48;100.00;118439.88;5031964;28;20547;-70
2023/05/09 07:19:16;;;;;;;33.65;15.77;;;;;;;-143.48;100.00;118439.88;5032751;28;20032;-70
2023/05/09 07:21:42;;;;;;;27.90;15.77;;;;;;;-143.48;100.00;118439.88;5031709;28;20424;-71
2023/05/09 07:24:07;;;;;;;32.63;15.93;;;;;;;-143.48;100.00;118439.88;5032743;28;20112;-70
2023/05/09 07:26:34;;;;;;;29.52;16.45;;;;;;;-143.48;100.00;118439.88;5032971;28;20473;-71
2023/05/09 07:28:59;;;;;;;28.73;15.40;;;;;;;-143.48;100.00;118439.88;5033552;28;20049;-70
2023/05/09 07:31:25;;;;;;;30.70;16.02;;;;;;;-143.48;100.00;118439.88;5032139;28;20024;-71
2023/05/09 07:33:50;;;;;;;27.13;15.20;;;;;;;-143.48;100.00;118439.88;5033375;28;20036;-71
2023/05/09 07:36:16;;;;;;;32.95;15.30;;;;;;;-143.48;100.00;118439.88;5033277;28;20067;-70
2023/05/09 07:38:41;;;;;;;28.23;15.20;;;;;;;-143.48;100.00;118439.88;5033290;28;20101;-71
2023/05/09 07:41:07;;;;;;;27.02;15.27;;;;;;;-143.48;100.00;118439.88;5033256;28;20481;-70
2023/05/09 07:43:32;;;;;;;26.83;15.38;;;;;;;-143.48;100.00;118439.88;5033276;28;20053;-70
2023/05/09 07:45:57;;;;;;;27.70;15.07;;;;;;;-143.48;100.00;118439.88;5033360;28;20033;-70
2023/05/09 07:48:23;;;;;;;27.48;14.50;;;;;;;-143.48;100.00;118439.88;5051472;28;20124;-70
2023/05/09 07:50:48;;;;;;;25.77;14.38;;;;;;;-143.48;100.00;118439.88;5035165;28;20373;-70
2023/05/09 07:53:13;;;;;;;24.20;14.82;;;;;;;-143.48;100.00;118439.88;5054024;28;20044;-70
2023/05/09 07:55:39;;;;;;;27.15;14.50;;;;;;;-143.48;100.00;118439.88;5057359;28;20488;-70
2023/05/09 07:58:05;;;;;;;25.90;13.93;;;;;;;-143.48;100.00;118439.88;5057311;28;20032;-70
2023/05/09 08:00:31;;;;;;;27.88;15.25;;;;;;;-143.48;100.00;118439.88;5057583;28;20040;-70
2023/05/09 08:02:56;;;;;;;28.15;14.90;;;;;;;-143.48;100.00;118439.88;5058383;28;20021;-70
2023/05/09 08:05:21;;;;;;;26.35;14.00;;;;;;;-143.48;100.00;118439.88;5057307;28;20032;-71
2023/05/09 08:07:47;;;;;;;25.40;13.23;;;;;;;-143.48;100.00;118439.88;5057209;28;20033;-72
2023/05/09 08:10:12;;;;;;;24.00;13.27;;;;;;;-143.48;100.00;118439.88;5056997;28;20021;-71
2023/05/09 08:12:38;;;;;;;21.40;13.85;;;;;;;-143.48;100.00;118439.88;5057214;28;20028;-71
2023/05/09 08:15:04;;;;;;;23.73;12.93;;;;;;;-143.48;100.00;118439.88;5056843;28;20423;-71
2023/05/09 08:17:29;;;;;;;22.20;12.95;;;;;;;-143.48;100.00;118439.88;5056887;28;20035;-73
2023/05/09 08:19:55;;;;;;;21.17;12.48;;;;;;;-143.48;100.00;118439.88;5039028;28;20020;-72
2023/05/09 08:22:20;;;;;;;26.73;13.00;;;;;;;-143.48;100.00;118439.88;5056712;28;20104;-69
2023/05/09 08:24:46;;;;;;;19.92;12.80;;;;;;;-143.48;100.00;118439.88;5056548;28;20048;-72
2023/05/09 08:27:12;;;;;;;19.45;12.38;;;;;;;-143.48;100.00;118439.88;5056584;28;20106;-70
2023/05/09 08:29:39;;;;;;;26.05;13.32;;;;;;;-143.48;100.00;118439.88;5056440;28;20083;-72
2023/05/09 08:32:04;;;;;;;26.80;13.75;;;;;;;-143.48;100.00;118439.88;5056433;28;20107;-70
2023/05/09 08:34:33;;;;;;;18.98;11.98;;;;;;;-143.48;100.00;118439.88;5038444;28;20117;-71
2023/05/09 08:37:02;;;;;;;20.85;12.43;;;;;;;-143.48;100.00;118439.88;5056438;28;20108;-71
2023/05/09 08:39:28;;;;;;;19.92;12.45;;;;;;;-143.48;100.00;118439.88;5056143;28;20027;-71
2023/05/09 08:41:58;;;;;;;20.58;13.20;;;;;;;-143.48;100.00;118439.88;5056332;28;20526;-71
2023/05/09 08:44:24;;;;;;;19.08;11.52;;;;;;;-143.48;100.00;118439.88;5056309;28;20036;-71
2023/05/09 08:46:57;;;;;;;19.52;12.05;;;;;;;-143.48;100.00;118439.88;5056276;28;20503;-71
2023/05/09 08:49:23;;;;;;;17.45;11.50;;;;;;;-143.48;100.00;118439.88;5038767;28;20064;-70
2023/05/09 08:51:49;;;;;;;16.58;10.88;;;;;;;-143.48;100.00;118439.88;5038114;28;20469;-72
2023/05/09 08:54:15;;;;;;;16.58;10.57;;;;;;;-143.48;100.00;118439.88;5056226;28;20450;-71
2023/05/09 08:56:41;;;;;;;16.92;10.40;;;;;;;-143.48;100.00;118439.88;5055859;28;20021;-70
2023/05/09 08:59:08;;;;;;;16.23;9.43;;;;;;;-143.48;100.00;118439.88;5038006;28;20074;-71
2023/05/09 09:01:36;;;;;;;13.50;8.80;;;;;;;-143.48;100.00;118439.88;5037971;28;20119;-70
2023/05/09 09:04:05;;;;;;;14.25;9.82;;;;;;;-143.48;100.00;118439.88;5055308;28;20029;-71
2023/05/09 09:06:33;;;;;;;13.48;9.48;;;;;;;-143.48;100.00;118439.88;5055645;28;20036;-70
2023/05/09 09:08:59;;;;;;;14.10;9.45;;;;;;;-143.48;100.00;118439.88;5055566;28;20155;-72
2023/05/09 09:11:27;;;;;;;14.68;9.10;;;;;;;-143.48;100.00;118439.88;5055667;28;20029;-71
2023/05/09 09:13:53;;;;;;;13.27;8.57;;;;;;;-143.48;100.00;118439.88;5037764;28;20114;-70
2023/05/09 09:16:20;;;;;;;27.75;9.52;;;;;;;-143.48;100.00;118439.88;5055589;28;20039;-70
2023/05/09 09:18:46;;;;;;;16.25;9.75;;;;;;;-143.48;100.00;118439.88;5037521;28;20024;-71
2023/05/09 09:21:15;;;;;;;15.75;9.55;;;;;;;-143.48;100.00;118439.88;5055544;28;20029;-70
2023/05/09 09:23:42;;;;;;;16.25;8.82;;;;;;;-143.48;100.00;118439.88;5037434;28;20032;-69
2023/05/09 09:26:08;;;;;;;13.75;8.48;;;;;;;-143.48;100.00;118439.88;5037453;28;20029;-70
2023/05/09 09:28:34;;;;;;;12.45;8.40;;;;;;;-143.48;100.00;118439.88;5055266;28;20087;-70
2023/05/09 09:31:00;;;;;;;11.35;8.20;;;;;;;-143.48;100.00;118439.88;5037228;28;20031;-71
2023/05/09 09:33:27;;;;;;;13.80;8.60;;;;;;;-143.48;100.00;118439.88;5055375;28;20107;-71
2023/05/09 09:35:54;;;;;;;11.75;8.52;;;;;;;-143.48;100.00;118439.88;5055221;28;20451;-71
2023/05/09 09:38:20;;;;;;;13.27;9.15;;;;;;;-143.48;100.00;118439.88;5055105;28;20021;-70
2023/05/09 09:40:55;;;;;;;13.38;9.27;;;;;;;-143.48;100.00;118439.88;5055248;28;20059;-70
2023/05/09 09:43:28;;;;;;;15.20;9.35;;;;;;;-143.48;100.00;118439.88;5055253;28;20039;-70
2023/05/09 09:45:54;;;;;;;14.77;8.98;;;;;;;-143.48;100.00;118439.88;5053138;28;20043;-69
2023/05/09 09:48:34;;;;;;;13.13;9.13;;;;;;;-143.48;100.00;118439.88;5053208;28;20140;-69
2023/05/09 09:51:10;;;;;;;12.05;8.63;;;;;;;-143.48;100.00;118439.88;5053018;28;20037;-70
2023/05/09 09:53:40;;;;;;;13.23;8.55;;;;;;;-143.48;100.00;118439.88;5053123;28;20029;-70
2023/05/09 09:56:05;;;;;;;12.20;8.57;;;;;;;-143.48;100.00;118439.88;5053120;28;20021;-70
2023/05/09 09:58:31;;;;;;;12.95;8.82;;;;;;;-143.48;100.00;118439.88;5053001;28;20033;-70
2023/05/09 10:01:09;;;;;;;12.27;8.02;;;;;;;-143.48;100.00;118439.88;5054405;28;20029;-71
2023/05/09 10:03:46;;;;;;;14.48;8.90;;;;;;;-143.48;100.00;118439.88;5054695;28;20108;-71
2023/05/09 10:06:14;;;;;;;14.32;8.30;;;;;;;-143.48;100.00;118439.88;5036717;28;20104;-71
2023/05/09 10:08:42;;;;;;;11.50;8.27;;;;;;;-143.48;100.00;118439.88;5054505;28;20647;-70
2023/05/09 10:11:08;;;;;;;14.00;8.23;;;;;;;-143.48;100.00;118439.88;5054602;28;20029;-70
2023/05/09 10:13:37;;;;;;;11.43;8.18;;;;;;;-143.48;100.00;118439.88;5054682;28;20025;-71
2023/05/09 10:16:04;;;;;;;15.88;8.65;;;;;;;-143.48;100.00;118439.88;5053161;28;20388;-70
2023/05/09 10:18:30;;;;;;;12.50;8.55;;;;;;;-143.48;100.00;118439.88;5052976;28;20021;-72
2023/05/09 10:21:00;;;;;;;12.38;8.20;;;;;;;-143.48;100.00;118439.88;5054402;28;20024;-72
2023/05/09 10:23:33;;;;;;;13.30;8.02;;;;;;;-143.48;100.00;118439.88;5054376;28;20060;-71
2023/05/09 10:26:10;;;;;;;11.48;8.27;;;;;;;-143.48;100.00;118439.88;5054199;28;20090;-71
2023/05/09 10:28:39;;;;;;;13.13;7.75;;;;;;;-143.48;100.00;118439.88;5054354;28;20036;-70
2023/05/09 10:31:13;;;;;;;9.85;6.68;;;;;;;-143.48;100.00;118439.88;5054137;28;20040;-70
2023/05/09 10:33:46;;;;;;;9.98;7.13;;;;;;;-143.48;100.00;118439.88;5054113;28;20025;-70
2023/05/09 10:36:15;;;;;;;11.27;7.47;;;;;;;-143.48;100.00;118439.88;5054009;28;20024;-71
2023/05/09 10:38:42;;;;;;;12.25;7.90;;;;;;;-143.48;100.00;118439.88;5054037;28;20028;-70
2023/05/09 10:41:09;;;;;;;12.07;7.40;;;;;;;-143.48;100.00;118439.88;5053898;28;20029;-70
2023/05/09 10:43:35;;;;;;;14.77;6.82;;;;;;;-143.48;100.00;118439.88;5035992;28;20032;-70
2023/05/09 10:46:01;;;;;;;10.23;6.97;;;;;;;-143.48;100.00;118439.88;5053935;28;20029;-70